Time;durP1;ratioP1;P1;durP2;ratioP2;P2;SDS_P1;SDS_P2;PMS_P1;PMS_P2;Temp;Humidity;BMP_temperature;BMP_pressure;BME280_temperature;BME280_humidity;BME280_pressure;Samples;Min_cycle;Max_cycle;Signal;HPM_P1;HPM_P2
2022/05/18 00:00:48;;;;;;;3.87;3.67;;;29.60;44.40;;;;;;5059851;28;20454;-79
2022/05/18 00:03:17;;;;;;;4.50;4.20;;;29.60;44.40;;;;;;5059543;28;20517;-79
2022/05/18 00:05:46;;;;;;;4.30;4.00;;;29.50;44.40;;;;;;5059548;28;20431;-79
2022/05/18 00:08:14;;;;;;;6.90;4.70;;;29.50;44.40;;;;;;5057771;28;20441;-79
2022/05/18 00:10:48;;;;;;;4.43;4.13;;;29.50;44.40;;;;;;5059764;28;20485;-79
2022/05/18 00:13:16;;;;;;;4.60;4.20;;;29.50;44.40;;;;;;5059706;28;20434;-79
2022/05/18 00:15:44;;;;;;;5.03;3.97;;;29.50;44.50;;;;;;5059339;28;20442;-79
2022/05/18 00:18:14;;;;;;;4.77;4.37;;;29.50;44.40;;;;;;5057129;28;20500;-79
2022/05/18 00:20:42;;;;;;;4.93;4.53;;;29.50;44.50;;;;;;5056381;28;20489;-79
2022/05/18 00:23:10;;;;;;;4.20;4.00;;;29.50;44.50;;;;;;5048061;28;20470;-79
2022/05/18 00:25:41;;;;;;;4.97;4.50;;;29.40;44.40;;;;;;5050241;28;20899;-78
2022/05/18 00:28:09;;;;;;;8.63;4.67;;;29.50;44.60;;;;;;5055925;28;20462;-78
2022/05/18 00:30:38;;;;;;;4.50;4.13;;;29.50;44.40;;;;;;5055488;28;20605;-79
2022/05/18 00:33:07;;;;;;;5.03;3.80;;;29.40;44.40;;;;;;5044617;28;20466;-79
2022/05/18 00:35:37;;;;;;;4.20;3.90;;;29.40;44.40;;;;;;5057925;28;20417;-79
2022/05/18 00:38:06;;;;;;;7.10;4.33;;;29.40;44.40;;;;;;5057035;28;20475;-80
2022/05/18 00:40:35;;;;;;;5.30;4.90;;;29.40;44.50;;;;;;5058576;28;20433;-80
2022/05/18 00:43:03;;;;;;;4.50;4.17;;;29.40;44.40;;;;;;5057674;28;20417;-79
2022/05/18 00:45:32;;;;;;;5.23;4.50;;;29.30;44.30;;;;;;5057921;28;20463;-80
2022/05/18 00:48:00;;;;;;;4.30;4.03;;;29.40;44.40;;;;;;5049355;28;20486;-80
2022/05/18 00:50:30;;;;;;;4.30;3.90;;;29.30;44.40;;;;;;5046281;28;20470;-80
2022/05/18 00:53:02;;;;;;;4.57;4.13;;;29.40;44.50;;;;;;5058638;28;20467;-80
2022/05/18 00:55:31;;;;;;;4.70;4.30;;;29.30;44.50;;;;;;5059977;28;20482;-80
2022/05/18 00:58:04;;;;;;;4.27;4.07;;;29.30;44.60;;;;;;5057279;28;20470;-80
2022/05/18 01:00:32;;;;;;;5.13;4.60;;;29.30;44.50;;;;;;5065133;28;20446;-80
2022/05/18 01:03:01;;;;;;;4.60;4.30;;;29.30;44.50;;;;;;5064718;28;20446;-80
2022/05/18 01:05:30;;;;;;;4.30;4.10;;;29.20;44.40;;;;;;5065526;28;20429;-80
2022/05/18 01:08:00;;;;;;;4.73;4.43;;;29.30;44.70;;;;;;5061756;28;20474;-80
2022/05/18 01:10:28;;;;;;;4.57;4.10;;;29.30;44.50;;;;;;5064203;28;20470;-80
2022/05/18 01:12:56;;;;;;;4.30;4.00;;;29.30;44.60;;;;;;5057238;28;20427;-80
2022/05/18 01:15:24;;;;;;;4.27;4.03;;;29.30;44.60;;;;;;5065712;28;20453;-80
2022/05/18 01:17:56;;;;;;;5.30;4.83;;;29.30;44.50;;;;;;5065518;28;20449;-81
2022/05/18 01:20:26;;;;;;;4.70;4.40;;;29.20;45.20;;;;;;5066022;28;20462;-80
2022/05/18 01:23:02;;;;;;;4.40;4.00;;;29.20;44.50;;;;;;5066051;28;20493;-81
2022/05/18 01:25:41;;;;;;;4.27;3.90;;;29.20;44.50;;;;;;5065687;28;20466;-81
2022/05/18 01:28:11;;;;;;;4.87;4.30;;;29.20;44.50;;;;;;5064534;28;20481;-81
2022/05/18 01:30:42;;;;;;;4.43;4.03;;;29.20;44.50;;;;;;5066581;28;20456;-81
2022/05/18 01:33:10;;;;;;;4.50;4.20;;;29.20;44.60;;;;;;5067856;28;20504;-81
2022/05/18 01:35:40;;;;;;;5.27;4.10;;;29.20;44.50;;;;;;5066551;28;20438;-82
2022/05/18 01:38:12;;;;;;;4.63;4.30;;;29.20;44.60;;;;;;5064336;28;20477;-82
2022/05/18 01:40:45;;;;;;;4.17;3.97;;;29.10;44.50;;;;;;5064116;28;20458;-82
2022/05/18 01:43:16;;;;;;;4.10;3.80;;;29.10;44.70;;;;;;5063972;28;20481;-82
2022/05/18 01:45:44;;;;;;;8.13;4.00;;;29.20;44.60;;;;;;5056686;28;20468;-82
2022/05/18 01:48:14;;;;;;;4.33;4.07;;;29.10;44.50;;;;;;5065048;28;20525;-82
2022/05/18 01:50:43;;;;;;;4.57;4.27;;;29.10;44.50;;;;;;5063693;28;20504;-82
2022/05/18 01:53:13;;;;;;;4.40;4.10;;;29.10;44.60;;;;;;5065936;28;20470;-82
2022/05/18 01:55:41;;;;;;;3.87;3.60;;;29.10;44.60;;;;;;5066825;28;20479;-81
2022/05/18 01:58:09;;;;;;;3.87;3.63;;;29.10;44.70;;;;;;5066532;28;20435;-81
2022/05/18 02:00:39;;;;;;;4.17;3.90;;;29.10;44.60;;;;;;5063765;28;20466;-82
2022/05/18 02:03:07;;;;;;;3.70;3.50;;;29.00;44.70;;;;;;5066101;28;20449;-82
2022/05/18 02:05:36;;;;;;;4.17;3.87;;;29.00;44.60;;;;;;5063017;28;20531;-82
2022/05/18 02:08:04;;;;;;;4.87;4.47;;;29.10;44.70;;;;;;5063304;28;20470;-82
2022/05/18 02:10:32;;;;;;;4.20;3.90;;;29.10;44.70;;;;;;5063143;28;20986;-81
2022/05/18 02:13:00;;;;;;;3.83;3.63;;;29.00;44.70;;;;;;5063994;28;20477;-81
2022/05/18 02:15:28;;;;;;;3.73;3.43;;;29.00;44.60;;;;;;5063594;28;20472;-82
2022/05/18 02:17:57;;;;;;;4.30;4.10;;;29.00;44.60;;;;;;5063098;28;20451;-82
2022/05/18 02:20:25;;;;;;;3.73;3.43;;;29.00;44.60;;;;;;5065862;28;20425;-82
2022/05/18 02:22:53;;;;;;;4.17;3.90;;;29.00;44.70;;;;;;5065949;28;20443;-82
2022/05/18 02:25:21;;;;;;;4.20;3.97;;;29.00;44.60;;;;;;5064750;28;20953;-82
2022/05/18 02:27:50;;;;;;;3.77;3.57;;;29.00;44.70;;;;;;5069391;28;20438;-82
2022/05/18 02:30:18;;;;;;;3.97;3.67;;;29.00;44.70;;;;;;5085962;28;20470;-82
2022/05/18 02:32:46;;;;;;;5.20;3.50;;;29.00;44.60;;;;;;5086201;28;20445;-82
2022/05/18 02:35:16;;;;;;;4.67;4.37;;;29.00;44.60;;;;;;5082952;28;20476;-82
2022/05/18 02:37:44;;;;;;;4.20;4.00;;;29.00;44.70;;;;;;5064235;28;20477;-82
2022/05/18 02:40:12;;;;;;;7.33;4.00;;;29.00;44.50;;;;;;5044566;28;20471;-82
2022/05/18 02:42:40;;;;;;;3.90;3.60;;;28.90;44.60;;;;;;5045546;28;20435;-82
2022/05/18 02:45:09;;;;;;;4.07;3.87;;;28.90;44.60;;;;;;5047629;28;20406;-82
2022/05/18 02:47:37;;;;;;;4.10;3.60;;;28.90;44.60;;;;;;5049169;28;20443;-82
2022/05/18 02:50:06;;;;;;;4.50;4.10;;;28.90;44.50;;;;;;5048228;28;20463;-81
2022/05/18 02:52:37;;;;;;;3.97;3.77;;;28.90;44.60;;;;;;5061870;28;20425;-82
2022/05/18 02:57:52;;;;;;;3.80;3.57;;;28.90;44.70;;;;;;5068185;28;20440;-82
2022/05/18 03:00:21;;;;;;;3.50;3.30;;;28.90;44.70;;;;;;5068453;28;20437;-82
2022/05/18 03:02:50;;;;;;;3.70;3.57;;;28.90;44.70;;;;;;5066934;28;20442;-82
2022/05/18 03:05:18;;;;;;;4.03;3.77;;;28.90;44.70;;;;;;5067400;28;20449;-82
2022/05/18 03:07:48;;;;;;;4.57;3.43;;;28.80;44.70;;;;;;5066213;28;20436;-82
2022/05/18 03:10:18;;;;;;;4.10;3.87;;;28.80;44.80;;;;;;5066289;28;20449;-82
2022/05/18 03:12:46;;;;;;;3.83;3.73;;;28.80;44.60;;;;;;5066036;28;20451;-82
2022/05/18 03:15:14;;;;;;;4.50;4.20;;;28.80;44.80;;;;;;5065338;28;20421;-82
2022/05/18 03:17:42;;;;;;;3.73;3.53;;;28.80;44.80;;;;;;5066001;28;20457;-82
2022/05/18 03:23:33;;;;;;;3.87;3.57;;;28.80;44.70;;;;;;5066219;28;20466;-82
2022/05/18 03:25:47;;;;;;;4.20;3.83;;;28.70;44.80;;;;;;5062014;28;20456;-81
2022/05/18 03:28:15;;;;;;;3.87;3.67;;;28.70;44.90;;;;;;5063600;28;20493;-82
2022/05/18 03:30:43;;;;;;;3.90;3.70;;;28.70;44.80;;;;;;5064280;28;20501;-81
2022/05/18 03:33:11;;;;;;;4.13;3.93;;;28.70;44.90;;;;;;5064472;28;20432;-82
2022/05/18 03:35:39;;;;;;;3.60;3.40;;;28.70;44.90;;;;;;5064008;28;20462;-82
2022/05/18 03:38:08;;;;;;;3.93;3.70;;;28.70;44.90;;;;;;5063477;28;20443;-82
2022/05/18 03:40:43;;;;;;;3.80;3.60;;;28.70;44.90;;;;;;5063446;28;20557;-82
2022/05/18 03:43:11;;;;;;;4.00;3.70;;;28.70;44.90;;;;;;5062533;28;20454;-82
2022/05/18 03:45:39;;;;;;;3.77;3.57;;;28.70;45.00;;;;;;5046286;28;20443;-82
2022/05/18 03:48:08;;;;;;;3.67;3.57;;;28.60;44.90;;;;;;5042850;28;20493;-82
2022/05/18 03:50:37;;;;;;;4.03;3.83;;;28.60;44.90;;;;;;5043931;28;20562;-82
2022/05/18 03:53:05;;;;;;;4.53;4.23;;;28.60;45.00;;;;;;5042256;28;20474;-82
2022/05/18 03:55:34;;;;;;;3.63;3.53;;;28.70;44.90;;;;;;5043588;28;20929;-82
2022/05/18 03:58:02;;;;;;;3.80;3.70;;;28.60;44.90;;;;;;5052314;28;20425;-82
2022/05/18 04:00:32;;;;;;;4.10;3.90;;;28.60;44.90;;;;;;5063333;28;20446;-82
2022/05/18 04:02:59;;;;;;;3.97;3.73;;;28.60;45.00;;;;;;5063618;28;20458;-82
2022/05/18 04:05:27;;;;;;;3.93;3.73;;;28.60;45.10;;;;;;5062822;28;20421;-82
2022/05/18 04:07:55;;;;;;;4.03;3.67;;;28.60;45.00;;;;;;5062946;28;20474;-81
2022/05/18 04:10:23;;;;;;;3.70;3.50;;;28.60;45.00;;;;;;5063204;28;20497;-82
2022/05/18 04:12:53;;;;;;;4.50;4.20;;;28.60;45.10;;;;;;5062306;28;20572;-82
2022/05/18 04:15:21;;;;;;;3.53;3.43;;;28.60;45.00;;;;;;5062001;28;20425;-82
2022/05/18 04:17:50;;;;;;;4.60;4.20;;;28.60;45.00;;;;;;5063264;28;20442;-82
2022/05/18 04:20:20;;;;;;;4.17;3.97;;;28.60;45.00;;;;;;5062928;28;20490;-82
2022/05/18 04:22:48;;;;;;;4.00;3.70;;;28.60;45.00;;;;;;5062352;28;20421;-82
2022/05/18 04:25:18;;;;;;;3.50;3.40;;;28.60;45.10;;;;;;5062563;28;20450;-81
2022/05/18 04:27:47;;;;;;;3.80;3.60;;;28.60;44.90;;;;;;5062735;28;20462;-81
2022/05/18 04:30:17;;;;;;;3.70;3.50;;;28.60;45.00;;;;;;5060994;28;20509;-81
2022/05/18 04:32:45;;;;;;;3.90;3.70;;;28.60;45.00;;;;;;5063441;28;20505;-81
2022/05/18 04:35:14;;;;;;;4.27;4.07;;;28.60;45.00;;;;;;5062194;28;20409;-82
2022/05/18 04:37:42;;;;;;;3.63;3.43;;;28.60;45.00;;;;;;5063640;28;20421;-82
2022/05/18 04:40:11;;;;;;;3.80;3.53;;;28.60;44.90;;;;;;5062848;28;20466;-82
2022/05/18 04:42:39;;;;;;;3.83;3.53;;;28.60;44.90;;;;;;5062192;28;20473;-82
2022/05/18 04:45:09;;;;;;;3.83;3.63;;;28.60;45.00;;;;;;5062709;28;20529;-83
2022/05/18 04:47:39;;;;;;;3.63;3.47;;;28.60;45.00;;;;;;5056043;28;20485;-82
2022/05/18 04:50:08;;;;;;;4.07;3.80;;;28.70;44.80;;;;;;5061805;28;21023;-81
2022/05/18 04:52:36;;;;;;;3.80;3.60;;;28.70;44.90;;;;;;5061015;28;20466;-82
2022/05/18 04:55:05;;;;;;;3.73;3.53;;;28.70;44.80;;;;;;5052473;28;20417;-82
2022/05/18 04:57:33;;;;;;;4.03;3.80;;;28.70;45.00;;;;;;5057626;28;20452;-82
2022/05/18 05:00:01;;;;;;;3.43;3.13;;;28.70;44.90;;;;;;5060118;28;20477;-82
2022/05/18 05:02:29;;;;;;;3.40;3.20;;;28.70;44.90;;;;;;5064476;28;20446;-82
2022/05/18 05:04:59;;;;;;;3.87;3.67;;;28.70;44.70;;;;;;5054347;28;20489;-82
2022/05/18 05:07:27;;;;;;;3.67;3.47;;;28.70;45.00;;;;;;5067906;28;20442;-82
2022/05/18 05:09:55;;;;;;;3.57;3.40;;;28.70;44.90;;;;;;5066377;28;20501;-82
2022/05/18 05:12:25;;;;;;;3.67;3.47;;;28.70;44.90;;;;;;5066111;28;20485;-81
2022/05/18 05:14:53;;;;;;;3.90;3.70;;;28.70;44.80;;;;;;5064067;28;20542;-82
2022/05/18 05:17:21;;;;;;;4.10;3.77;;;28.70;44.90;;;;;;5059478;28;20417;-82
2022/05/18 05:19:48;;;;;;;3.40;3.30;;;28.70;44.90;;;;;;5062857;28;20457;-82
2022/05/18 05:22:18;;;;;;;4.03;3.83;;;28.70;44.90;;;;;;5055724;28;20449;-82
2022/05/18 05:24:46;;;;;;;3.83;3.63;;;28.70;44.80;;;;;;5062209;28;20438;-81
2022/05/18 05:27:14;;;;;;;4.00;3.70;;;28.70;44.90;;;;;;5062457;28;20434;-82
2022/05/18 05:29:42;;;;;;;4.07;3.80;;;28.70;44.80;;;;;;5061659;28;20440;-81
2022/05/18 05:32:11;;;;;;;4.00;3.80;;;28.70;44.80;;;;;;5063086;28;20479;-81
2022/05/18 05:34:39;;;;;;;3.20;3.10;;;28.70;44.80;;;;;;5054961;28;20485;-81
2022/05/18 05:37:07;;;;;;;3.40;3.30;;;28.60;44.80;;;;;;5059444;28;20454;-82
2022/05/18 05:39:36;;;;;;;3.83;3.63;;;28.70;44.80;;;;;;5059990;28;20446;-81
2022/05/18 05:42:05;;;;;;;3.80;3.60;;;28.70;44.80;;;;;;5060909;28;20504;-81
2022/05/18 05:44:33;;;;;;;3.97;3.77;;;28.70;44.80;;;;;;5055563;28;20467;-82
2022/05/18 05:47:03;;;;;;;3.70;3.50;;;28.70;44.80;;;;;;5064422;28;20445;-81
2022/05/18 05:49:31;;;;;;;4.20;4.00;;;28.70;44.90;;;;;;5075437;28;20431;-82
2022/05/18 05:51:59;;;;;;;4.03;3.73;;;28.70;44.80;;;;;;5067986;28;20487;-81
2022/05/18 05:54:27;;;;;;;3.63;3.43;;;28.70;44.80;;;;;;5061210;28;20489;-81
2022/05/18 05:56:57;;;;;;;3.90;3.70;;;28.70;44.70;;;;;;5060428;28;20516;-81
2022/05/18 05:59:25;;;;;;;3.80;3.60;;;28.70;44.70;;;;;;5068972;28;20458;-82
2022/05/18 06:02:00;;;;;;;3.50;3.40;;;28.70;44.70;;;;;;5069368;28;20431;-81
2022/05/18 06:04:30;;;;;;;3.87;3.57;;;28.70;44.70;;;;;;5068867;28;20447;-81
2022/05/18 06:06:58;;;;;;;3.20;3.10;;;28.70;44.70;;;;;;5069634;28;20412;-82
2022/05/18 06:09:26;;;;;;;3.73;3.53;;;28.70;44.80;;;;;;5067475;28;20446;-81
2022/05/18 06:11:54;;;;;;;3.97;3.77;;;28.80;44.80;;;;;;5070306;28;20527;-82
2022/05/18 06:14:24;;;;;;;4.10;3.80;;;28.80;44.80;;;;;;5070157;28;20466;-81
2022/05/18 06:16:52;;;;;;;3.90;3.70;;;28.80;44.80;;;;;;5071084;28;20421;-82
2022/05/18 06:19:20;;;;;;;3.93;3.63;;;28.80;44.80;;;;;;5073654;28;20447;-82
2022/05/18 06:21:49;;;;;;;3.87;3.67;;;28.80;44.80;;;;;;5074431;28;20405;-82
2022/05/18 06:24:18;;;;;;;4.30;4.10;;;28.80;44.80;;;;;;5071095;28;21007;-80
2022/05/18 06:26:46;;;;;;;9.70;3.93;;;28.80;44.90;;;;;;5069657;28;20454;-81
2022/05/18 06:29:14;;;;;;;4.40;3.47;;;28.90;44.90;;;;;;5072002;28;20413;-80
2022/05/18 06:31:43;;;;;;;8.47;4.37;;;28.90;44.90;;;;;;5067457;28;20454;-83
2022/05/18 06:34:11;;;;;;;11.17;4.40;;;28.90;45.10;;;;;;5062139;28;20456;-82
2022/05/18 06:36:39;;;;;;;16.03;5.17;;;28.90;45.40;;;;;;5064480;28;20451;-83
2022/05/18 06:39:10;;;;;;;21.10;4.07;;;29.00;46.00;;;;;;5065957;28;20473;-83
2022/05/18 06:41:38;;;;;;;12.13;5.07;;;29.00;46.20;;;;;;5062420;28;20494;-82
2022/05/18 06:44:06;;;;;;;17.57;5.23;;;29.00;46.20;;;;;;5063072;28;20465;-83
2022/05/18 06:46:36;;;;;;;9.87;4.37;;;29.00;46.40;;;;;;5064761;28;20473;-82
2022/05/18 06:49:06;;;;;;;8.30;4.83;;;29.00;46.50;;;;;;5064584;28;20425;-83
2022/05/18 06:51:36;;;;;;;9.70;4.80;;;29.10;46.60;;;;;;5052997;28;20467;-84
2022/05/18 06:54:05;;;;;;;6.00;4.10;;;29.10;46.50;;;;;;5067311;28;20466;-82
2022/05/18 06:56:35;;;;;;;10.23;4.40;;;29.10;46.30;;;;;;5062688;28;20428;-82
2022/05/18 06:59:03;;;;;;;8.73;4.20;;;29.10;46.10;;;;;;5061171;28;20490;-83
2022/05/18 07:01:31;;;;;;;9.10;4.53;;;29.20;46.10;;;;;;5061117;28;20528;-83
2022/05/18 07:04:00;;;;;;;6.33;3.67;;;29.20;45.80;;;;;;5040970;28;20480;-82
2022/05/18 07:06:32;;;;;;;11.17;4.60;;;29.20;45.80;;;;;;5048979;28;20446;-79
2022/05/18 07:09:00;;;;;;;9.30;4.40;;;29.30;45.70;;;;;;5049070;28;20430;-80
2022/05/18 07:11:28;;;;;;;4.33;3.90;;;29.30;45.80;;;;;;5046856;28;20471;-79
2022/05/18 07:13:58;;;;;;;8.30;4.70;;;29.40;45.80;;;;;;5057228;28;20505;-79
2022/05/18 07:16:27;;;;;;;5.57;4.13;;;29.40;45.70;;;;;;5060700;28;20417;-80
2022/05/18 07:18:56;;;;;;;8.27;4.30;;;29.50;45.60;;;;;;5046900;28;20456;-80
2022/05/18 07:21:25;;;;;;;4.13;3.77;;;29.50;45.40;;;;;;5054730;28;20470;-80
2022/05/18 07:23:55;;;;;;;3.53;3.20;;;29.60;45.30;;;;;;5066944;28;20439;-79
2022/05/18 07:26:24;;;;;;;4.70;3.90;;;29.60;45.30;;;;;;5054983;28;20447;-78
2022/05/18 07:28:51;;;;;;;5.53;3.67;;;29.60;45.40;;;;;;5054036;28;20492;-78
2022/05/18 07:31:20;;;;;;;6.40;4.03;;;29.70;45.00;;;;;;5053933;28;20466;-78
2022/05/18 07:34:08;;;;;;;6.67;4.00;;;29.70;44.90;;;;;;5051415;28;20478;-77
2022/05/18 07:36:38;;;;;;;8.97;3.53;;;29.80;44.60;;;;;;5049639;28;20474;-79
2022/05/18 07:39:08;;;;;;;4.57;3.50;;;29.90;44.60;;;;;;5055250;28;20450;-78
2022/05/18 07:41:37;;;;;;;4.60;3.30;;;30.00;44.40;;;;;;5039186;28;20502;-78
2022/05/18 07:44:05;;;;;;;6.73;3.80;;;30.00;44.10;;;;;;5055803;28;20442;-79
2022/05/18 07:46:35;;;;;;;5.50;2.90;;;30.10;44.00;;;;;;5053382;28;20442;-79
2022/05/18 07:49:04;;;;;;;4.53;3.40;;;30.20;43.90;;;;;;5057467;28;20417;-79
2022/05/18 07:51:32;;;;;;;8.20;3.50;;;30.20;43.60;;;;;;5055466;28;20462;-78
2022/05/18 07:54:00;;;;;;;8.37;4.13;;;30.30;43.40;;;;;;5059933;28;20500;-78
2022/05/18 07:56:30;;;;;;;6.90;3.37;;;30.40;43.40;;;;;;5058343;28;20442;-79
2022/05/18 07:58:58;;;;;;;7.23;3.10;;;30.40;43.20;;;;;;5039432;28;20451;-80
2022/05/18 08:01:26;;;;;;;3.30;3.07;;;30.50;43.20;;;;;;5044774;28;20489;-81
2022/05/18 08:03:54;;;;;;;4.67;3.57;;;30.50;43.10;;;;;;5052175;28;20443;-80
2022/05/18 08:06:22;;;;;;;5.27;3.93;;;30.60;43.00;;;;;;5063275;28;20466;-80
2022/05/18 08:08:50;;;;;;;6.53;3.30;;;30.70;43.00;;;;;;5063812;28;20432;-80
2022/05/18 08:16:51;;;;;;;5.77;3.00;;;30.80;42.80;;;;;;5062293;28;20443;-82
2022/05/18 08:19:19;;;;;;;5.73;3.13;;;30.90;42.80;;;;;;5057380;28;20537;-80
2022/05/18 08:21:48;;;;;;;3.50;3.20;;;30.90;42.60;;;;;;5044442;28;20497;-81
2022/05/18 08:24:16;;;;;;;3.73;3.40;;;31.00;43.10;;;;;;5062005;28;20510;-80
2022/05/18 08:26:44;;;;;;;3.13;2.93;;;31.00;43.00;;;;;;5063339;28;20469;-79
2022/05/18 08:29:14;;;;;;;3.53;3.20;;;31.10;42.40;;;;;;5058014;28;20461;-80
2022/05/18 08:31:49;;;;;;;4.50;2.93;;;31.20;42.30;;;;;;5063971;28;20466;-81
2022/05/18 08:34:17;;;;;;;3.57;2.70;;;31.30;42.10;;;;;;5063507;28;20529;-80
2022/05/18 08:36:45;;;;;;;3.70;2.77;;;31.30;42.10;;;;;;5061085;28;20462;-79
2022/05/18 08:39:13;;;;;;;4.93;3.17;;;31.40;41.90;;;;;;5062231;28;20443;-80
2022/05/18 08:41:43;;;;;;;3.57;3.00;;;31.40;41.80;;;;;;5059220;28;20520;-80
2022/05/18 08:44:11;;;;;;;4.50;3.30;;;31.50;41.70;;;;;;5063635;28;20438;-81
2022/05/18 08:46:44;;;;;;;3.03;2.73;;;31.60;41.60;;;;;;5051446;28;20450;-79
2022/05/18 08:49:27;;;;;;;2.53;2.43;;;31.60;41.40;;;;;;5052705;28;20465;-81
2022/05/18 08:52:00;;;;;;;3.00;2.70;;;31.70;41.40;;;;;;5063841;28;20427;-80
2022/05/18 08:54:34;;;;;;;4.33;2.50;;;31.70;41.20;;;;;;5046403;28;20471;-80
2022/05/18 08:57:04;;;;;;;2.80;2.60;;;31.80;41.20;;;;;;5065533;28;20466;-81
2022/05/18 08:59:34;;;;;;;4.97;2.70;;;31.90;41.10;;;;;;5056217;28;20444;-80
2022/05/18 09:02:09;;;;;;;4.13;2.83;;;31.90;40.80;;;;;;5044563;28;20450;-82
2022/05/18 09:04:42;;;;;;;3.30;2.57;;;32.00;40.80;;;;;;5045262;28;20466;-82
2022/05/18 09:07:34;;;;;;;3.43;2.80;;;32.10;40.60;;;;;;5060574;28;20433;-79
2022/05/18 09:10:13;;;;;;;2.70;2.60;;;32.10;40.60;;;;;;5062957;28;20474;-80
2022/05/18 09:12:43;;;;;;;2.70;2.60;;;32.20;40.40;;;;;;5055557;28;20472;-80
2022/05/18 09:15:13;;;;;;;3.00;2.10;;;32.20;40.20;;;;;;5052680;28;20470;-82
2022/05/18 09:17:46;;;;;;;8.20;2.40;;;32.30;41.00;;;;;;5043629;28;21059;-83
2022/05/18 09:20:16;;;;;;;4.07;2.43;;;32.70;40.50;;;;;;5055882;28;20474;-84
2022/05/18 09:22:54;;;;;;;6.70;2.30;;;33.00;39.80;;;;;;5049021;28;20471;-82
2022/05/18 09:25:28;;;;;;;12.67;2.33;;;33.20;39.20;;;;;;5052711;28;20461;-84
2022/05/18 09:28:07;;;;;;;4.07;2.50;;;33.50;39.00;;;;;;5056149;28;20490;-82
2022/05/18 09:30:39;;;;;;;7.17;3.00;;;33.70;38.60;;;;;;5040373;28;20463;-84
2022/05/18 09:33:28;;;;;;;3.57;2.23;;;33.90;38.20;;;;;;5038679;28;20513;-83
2022/05/18 09:36:07;;;;;;;4.90;2.10;;;34.00;38.00;;;;;;5038371;28;20443;-83
2022/05/18 09:38:36;;;;;;;2.30;2.10;;;34.20;37.80;;;;;;5037491;28;20462;-83
2022/05/18 09:41:05;;;;;;;5.23;2.27;;;34.30;37.50;;;;;;5043763;28;20508;-83
2022/05/18 09:43:36;;;;;;;10.77;2.70;;;34.50;37.40;;;;;;5056708;28;20488;-83
2022/05/18 09:46:04;;;;;;;11.63;2.13;;;34.50;37.10;;;;;;5044915;28;20470;-84
2022/05/18 09:48:40;;;;;;;4.50;2.23;;;34.60;36.90;;;;;;5042129;28;20450;-83
2022/05/18 09:51:08;;;;;;;3.03;2.00;;;34.70;36.80;;;;;;5054524;28;20453;-84
2022/05/18 09:53:36;;;;;;;2.80;2.10;;;34.80;36.60;;;;;;5056630;28;20454;-84
2022/05/18 09:56:06;;;;;;;2.40;2.20;;;34.90;36.40;;;;;;5055956;28;20933;-84
2022/05/18 09:58:36;;;;;;;2.43;1.97;;;35.00;36.50;;;;;;5058188;28;20893;-82
2022/05/18 10:09:40;;;;;;;2.33;2.10;;;35.30;35.80;;;;;;5035952;28;20455;-84
2022/05/18 10:12:17;;;;;;;2.97;1.93;;;35.40;35.60;;;;;;5047379;28;20442;-84
2022/05/18 10:14:47;;;;;;;1.87;1.73;;;35.50;35.70;;;;;;5056920;28;20473;-83
2022/05/18 10:17:15;;;;;;;2.63;2.13;;;35.60;35.60;;;;;;5044221;28;20517;-84
2022/05/18 10:19:46;;;;;;;2.60;2.13;;;35.60;35.40;;;;;;5036315;28;20467;-85
2022/05/18 10:22:18;;;;;;;1.90;1.80;;;35.70;35.30;;;;;;5035000;28;20442;-84
2022/05/18 10:24:49;;;;;;;2.00;1.90;;;35.70;35.10;;;;;;5038772;28;20431;-84
2022/05/18 10:27:23;;;;;;;4.00;1.70;;;35.80;35.10;;;;;;5053825;28;20447;-85
2022/05/18 10:30:02;;;;;;;2.80;1.80;;;35.90;35.00;;;;;;5054938;28;20488;-86
2022/05/18 10:32:31;;;;;;;1.70;1.60;;;36.00;34.80;;;;;;5034719;28;20448;-85
2022/05/18 10:35:01;;;;;;;3.90;1.53;;;36.10;34.60;;;;;;5034426;28;20471;-86
2022/05/18 10:37:31;;;;;;;4.90;2.03;;;36.20;34.50;;;;;;5034575;28;20965;-86
2022/05/18 10:40:02;;;;;;;3.47;1.63;;;36.20;34.30;;;;;;5034646;28;20474;-85
2022/05/18 10:42:33;;;;;;;1.80;1.70;;;36.40;34.30;;;;;;5052840;28;20604;-85
2022/05/18 10:45:36;;;;;;;1.67;1.57;;;36.40;34.00;;;;;;5054283;28;20441;-85
2022/05/18 10:48:07;;;;;;;2.60;1.80;;;36.50;34.10;;;;;;5051710;28;20439;-86
2022/05/18 10:50:36;;;;;;;2.30;1.97;;;36.50;33.80;;;;;;5053859;28;20527;-85
2022/05/18 10:53:26;;;;;;;5.50;1.73;;;36.60;34.40;;;;;;5054576;28;20453;-85
2022/05/18 10:55:56;;;;;;;1.70;1.60;;;36.70;33.90;;;;;;5053618;28;20561;-85
2022/05/18 10:58:30;;;;;;;1.70;1.70;;;36.80;33.60;;;;;;5053996;28;20481;-85
2022/05/18 11:01:01;;;;;;;1.60;1.50;;;36.90;33.40;;;;;;5053835;28;20470;-84
2022/05/18 11:03:37;;;;;;;1.60;1.50;;;37.00;33.40;;;;;;5052027;28;20462;-86
2022/05/18 11:06:07;;;;;;;1.70;1.43;;;37.10;33.30;;;;;;5033466;28;20443;-85
2022/05/18 11:08:35;;;;;;;2.00;1.73;;;37.10;33.20;;;;;;5033434;28;20455;-85
2022/05/18 11:11:12;;;;;;;1.70;1.57;;;37.30;33.10;;;;;;5033920;28;20476;-86
2022/05/18 11:13:45;;;;;;;1.37;1.37;;;37.30;33.00;;;;;;5038170;28;20637;-86
2022/05/18 11:16:28;;;;;;;1.73;1.63;;;37.30;33.00;;;;;;5053780;28;20482;-86
2022/05/18 11:19:00;;;;;;;4.53;1.70;;;37.40;33.10;;;;;;5054077;28;20500;-86
2022/05/18 11:21:33;;;;;;;4.30;1.80;;;37.20;32.90;;;;;;5054376;28;20466;-86
2022/05/18 11:24:06;;;;;;;1.40;1.40;;;37.00;33.30;;;;;;5054046;28;20594;-86
2022/05/18 11:26:40;;;;;;;1.60;1.50;;;37.00;33.80;;;;;;5053976;28;20913;-86
2022/05/18 11:29:17;;;;;;;1.70;1.60;;;37.00;33.60;;;;;;5053706;28;20446;-85
2022/05/18 11:31:57;;;;;;;1.63;1.53;;;37.00;33.60;;;;;;5051474;28;20458;-85
2022/05/18 11:34:30;;;;;;;1.90;1.80;;;37.00;33.80;;;;;;5053860;28;20453;-86
2022/05/18 11:37:05;;;;;;;1.80;1.73;;;37.00;33.90;;;;;;5057251;28;20439;-86
2022/05/18 11:39:38;;;;;;;2.67;1.80;;;37.10;33.80;;;;;;5054071;28;20434;-86
2022/05/18 11:42:23;;;;;;;1.70;1.60;;;37.20;33.60;;;;;;5053473;28;20530;-86
2022/05/18 11:45:03;;;;;;;4.73;1.70;;;37.40;33.70;;;;;;5053697;28;20496;-86
2022/05/18 11:47:41;;;;;;;1.30;1.30;;;37.50;33.40;;;;;;5051116;28;20482;-86
2022/05/18 11:50:17;;;;;;;1.50;1.50;;;37.40;33.20;;;;;;5053485;28;20485;-85
2022/05/18 11:52:55;;;;;;;1.90;1.80;;;37.60;33.30;;;;;;5055971;28;20500;-85
2022/05/18 11:55:29;;;;;;;2.07;1.70;;;37.70;33.20;;;;;;5064208;28;20483;-85
2022/05/18 11:58:09;;;;;;;1.50;1.40;;;37.70;32.70;;;;;;5059054;28;20477;-86
2022/05/18 12:00:46;;;;;;;1.80;1.70;;;37.60;32.70;;;;;;5053655;28;20453;-86
2022/05/18 12:03:35;;;;;;;3.33;1.40;;;37.50;32.80;;;;;;5049552;28;20481;-85
2022/05/18 12:06:21;;;;;;;1.70;1.60;;;37.30;33.00;;;;;;5053443;28;20521;-86
2022/05/18 12:09:11;;;;;;;1.97;1.50;;;37.30;33.40;;;;;;5053255;28;20561;-86
2022/05/18 12:11:47;;;;;;;1.50;1.40;;;37.10;34.00;;;;;;5050981;28;20550;-86
2022/05/18 12:14:21;;;;;;;8.03;1.80;;;37.10;33.70;;;;;;5052430;28;20530;-86
2022/05/18 12:16:53;;;;;;;1.50;1.40;;;37.30;33.60;;;;;;5052722;28;20466;-86
2022/05/18 12:19:23;;;;;;;2.30;1.43;;;37.40;33.40;;;;;;5049973;28;20533;-86
2022/05/18 12:21:54;;;;;;;1.87;1.53;;;37.50;33.40;;;;;;5053111;28;20496;-86
2022/05/18 12:24:23;;;;;;;1.57;1.57;;;37.60;33.20;;;;;;5053208;28;20496;-85
2022/05/18 12:26:51;;;;;;;2.50;1.70;;;37.60;32.80;;;;;;5052847;28;20470;-86
2022/05/18 12:29:21;;;;;;;1.60;1.50;;;37.70;32.60;;;;;;5052981;28;20485;-86
2022/05/18 12:31:49;;;;;;;1.93;1.50;;;37.60;32.80;;;;;;5053056;28;20450;-86
2022/05/18 12:34:21;;;;;;;1.33;1.33;;;37.60;32.90;;;;;;5053101;28;20478;-86
2022/05/18 12:36:55;;;;;;;2.20;1.30;;;37.50;32.80;;;;;;5048363;28;20472;-86
2022/05/18 12:39:40;;;;;;;1.47;1.33;;;37.50;33.10;;;;;;5052844;28;20481;-86
2022/05/18 12:42:09;;;;;;;1.70;1.60;;;37.50;33.10;;;;;;5052429;28;20446;-86
2022/05/18 12:44:39;;;;;;;1.10;1.10;;;37.30;33.00;;;;;;5052197;28;20454;-86
2022/05/18 12:47:23;;;;;;;2.30;1.50;;;37.30;33.20;;;;;;5052230;28;20446;-86
2022/05/18 12:49:56;;;;;;;1.47;1.40;;;37.20;33.30;;;;;;5053486;28;20473;-86
2022/05/18 12:52:40;;;;;;;1.50;1.37;;;37.10;33.50;;;;;;5037321;28;20471;-86
2022/05/18 12:55:21;;;;;;;1.30;1.30;;;37.20;33.60;;;;;;5048802;28;20459;-86
2022/05/18 12:57:51;;;;;;;1.60;1.23;;;37.30;33.60;;;;;;5053133;28;20441;-87
2022/05/18 13:00:42;;;;;;;1.60;1.50;;;37.50;33.30;;;;;;5052500;28;20532;-87
2022/05/18 13:03:36;;;;;;;1.60;1.50;;;37.60;33.20;;;;;;5052304;28;20964;-86
2022/05/18 13:06:11;;;;;;;2.60;1.23;;;37.60;33.10;;;;;;5040088;28;20504;-87
2022/05/18 13:09:04;;;;;;;3.13;1.53;;;37.60;33.10;;;;;;5051066;28;20538;-87
2022/05/18 13:11:47;;;;;;;4.23;1.43;;;37.50;33.30;;;;;;5048972;28;21008;-87
2022/05/18 13:14:43;;;;;;;1.40;1.40;;;37.40;33.30;;;;;;5032199;28;20474;-87
2022/05/18 13:17:19;;;;;;;1.73;1.60;;;37.30;33.80;;;;;;5032255;28;20486;-86
2022/05/18 13:20:04;;;;;;;1.53;1.43;;;37.10;33.30;;;;;;5032293;28;20471;-86
2022/05/18 13:22:49;;;;;;;2.13;1.30;;;37.10;33.40;;;;;;5032364;28;20510;-86
2022/05/18 13:25:19;;;;;;;4.03;1.90;;;37.00;33.50;;;;;;5033942;28;20499;-86